sensor_id;sensor_type;location;lat;lon;timestamp;P1;durP1;ratioP1;P2;durP2;ratioP2
20251;SDS011;10284;58.364;15.550;2022-07-23T00:00:07;15.77;;;5.13;;
20251;SDS011;10284;58.364;15.550;2022-07-23T00:02:33;17.17;;;5.13;;
20251;SDS011;10284;58.364;15.550;2022-07-23T00:04:58;15.02;;;5.10;;
20251;SDS011;10284;58.364;15.550;2022-07-23T00:07:24;16.95;;;4.63;;
20251;SDS011;10284;58.364;15.550;2022-07-23T00:09:49;13.07;;;4.45;;
20251;SDS011;10284;58.364;15.550;2022-07-23T00:12:15;12.88;;;5.10;;
20251;SDS011;10284;58.364;15.550;2022-07-23T00:14:40;16.38;;;5.43;;
20251;SDS011;10284;58.364;15.550;2022-07-23T00:17:06;14.70;;;5.45;;
20251;SDS011;10284;58.364;15.550;2022-07-23T00:19:31;14.63;;;4.88;;
20251;SDS011;10284;58.364;15.550;2022-07-23T00:21:57;11.20;;;5.53;;
20251;SDS011;10284;58.364;15.550;2022-07-23T00:24:22;14.98;;;5.60;;
20251;SDS011;10284;58.364;15.550;2022-07-23T00:26:47;19.98;;;5.45;;
20251;SDS011;10284;58.364;15.550;2022-07-23T00:29:13;17.30;;;5.25;;
20251;SDS011;10284;58.364;15.550;2022-07-23T00:31:38;13.55;;;5.32;;
20251;SDS011;10284;58.364;15.550;2022-07-23T00:34:04;14.20;;;5.72;;
20251;SDS011;10284;58.364;15.550;2022-07-23T00:36:29;16.17;;;5.38;;
20251;SDS011;10284;58.364;15.550;2022-07-23T00:38:56;15.57;;;6.20;;
20251;SDS011;10284;58.364;15.550;2022-07-23T00:41:22;12.45;;;4.90;;
20251;SDS011;10284;58.364;15.550;2022-07-23T00:43:47;13.75;;;5.28;;
20251;SDS011;10284;58.364;15.550;2022-07-23T00:46:13;12.05;;;5.22;;
20251;SDS011;10284;58.364;15.550;2022-07-23T00:48:38;12.18;;;5.05;;
20251;SDS011;10284;58.364;15.550;2022-07-23T00:51:04;12.68;;;5.18;;
20251;SDS011;10284;58.364;15.550;2022-07-23T00:53:29;14.27;;;5.43;;
20251;SDS011;10284;58.364;15.550;2022-07-23T00:55:56;12.95;;;5.13;;
20251;SDS011;10284;58.364;15.550;2022-07-23T00:58:23;13.35;;;4.97;;
20251;SDS011;10284;58.364;15.550;2022-07-23T01:00:49;14.35;;;5.10;;
20251;SDS011;10284;58.364;15.550;2022-07-23T01:03:14;13.70;;;5.40;;
20251;SDS011;10284;58.364;15.550;2022-07-23T01:05:40;14.35;;;5.07;;
20251;SDS011;10284;58.364;15.550;2022-07-23T01:08:05;15.55;;;5.10;;
20251;SDS011;10284;58.364;15.550;2022-07-23T01:10:32;13.93;;;5.38;;
20251;SDS011;10284;58.364;15.550;2022-07-23T01:13:01;17.88;;;5.95;;
20251;SDS011;10284;58.364;15.550;2022-07-23T01:15:28;12.13;;;5.30;;
20251;SDS011;10284;58.364;15.550;2022-07-23T01:17:54;16.48;;;5.03;;
20251;SDS011;10284;58.364;15.550;2022-07-23T01:20:19;18.02;;;6.10;;
20251;SDS011;10284;58.364;15.550;2022-07-23T01:22:45;13.85;;;5.55;;
20251;SDS011;10284;58.364;15.550;2022-07-23T01:25:10;20.42;;;5.18;;
20251;SDS011;10284;58.364;15.550;2022-07-23T01:27:36;18.10;;;5.57;;
20251;SDS011;10284;58.364;15.550;2022-07-23T01:30:02;11.25;;;4.65;;
20251;SDS011;10284;58.364;15.550;2022-07-23T01:32:28;16.65;;;5.25;;
20251;SDS011;10284;58.364;15.550;2022-07-23T01:34:53;17.35;;;4.75;;
20251;SDS011;10284;58.364;15.550;2022-07-23T01:37:19;16.13;;;5.43;;
20251;SDS011;10284;58.364;15.550;2022-07-23T01:39:44;19.55;;;5.03;;
20251;SDS011;10284;58.364;15.550;2022-07-23T01:42:09;24.90;;;6.50;;
20251;SDS011;10284;58.364;15.550;2022-07-23T01:44:35;14.18;;;5.13;;
20251;SDS011;10284;58.364;15.550;2022-07-23T01:47:01;12.77;;;5.13;;
20251;SDS011;10284;58.364;15.550;2022-07-23T01:49:26;13.38;;;5.70;;
20251;SDS011;10284;58.364;15.550;2022-07-23T01:51:51;14.75;;;5.60;;
20251;SDS011;10284;58.364;15.550;2022-07-23T01:54:27;15.30;;;5.63;;
20251;SDS011;10284;58.364;15.550;2022-07-23T01:56:52;13.13;;;5.15;;
20251;SDS011;10284;58.364;15.550;2022-07-23T01:59:18;13.13;;;5.95;;
20251;SDS011;10284;58.364;15.550;2022-07-23T02:01:43;18.38;;;6.13;;
20251;SDS011;10284;58.364;15.550;2022-07-23T02:04:09;14.15;;;5.45;;
20251;SDS011;10284;58.364;15.550;2022-07-23T02:06:34;13.68;;;5.93;;
20251;SDS011;10284;58.364;15.550;2022-07-23T02:09:00;14.73;;;6.30;;
20251;SDS011;10284;58.364;15.550;2022-07-23T02:11:25;18.08;;;5.35;;
20251;SDS011;10284;58.364;15.550;2022-07-23T02:13:51;15.70;;;4.90;;
20251;SDS011;10284;58.364;15.550;2022-07-23T02:16:16;11.68;;;5.65;;
20251;SDS011;10284;58.364;15.550;2022-07-23T02:18:42;15.70;;;5.20;;
20251;SDS011;10284;58.364;15.550;2022-07-23T02:21:07;16.35;;;5.47;;
20251;SDS011;10284;58.364;15.550;2022-07-23T02:23:32;12.25;;;5.55;;
20251;SDS011;10284;58.364;15.550;2022-07-23T02:25:58;16.45;;;5.60;;
20251;SDS011;10284;58.364;15.550;2022-07-23T02:28:23;14.55;;;5.13;;
20251;SDS011;10284;58.364;15.550;2022-07-23T02:30:49;14.15;;;5.45;;
20251;SDS011;10284;58.364;15.550;2022-07-23T02:33:14;12.43;;;6.03;;
20251;SDS011;10284;58.364;15.550;2022-07-23T02:35:39;13.57;;;5.47;;
20251;SDS011;10284;58.364;15.550;2022-07-23T02:38:05;9.60;;;3.85;;
20251;SDS011;10284;58.364;15.550;2022-07-23T02:40:30;8.10;;;3.90;;
20251;SDS011;10284;58.364;15.550;2022-07-23T02:42:56;7.82;;;3.63;;
20251;SDS011;10284;58.364;15.550;2022-07-23T02:45:21;13.40;;;4.28;;
20251;SDS011;10284;58.364;15.550;2022-07-23T02:47:47;7.47;;;4.05;;
20251;SDS011;10284;58.364;15.550;2022-07-23T02:50:12;10.60;;;3.80;;
20251;SDS011;10284;58.364;15.550;2022-07-23T02:52:38;10.45;;;4.03;;
20251;SDS011;10284;58.364;15.550;2022-07-23T02:55:04;6.82;;;3.65;;
20251;SDS011;10284;58.364;15.550;2022-07-23T02:57:30;8.38;;;3.40;;
20251;SDS011;10284;58.364;15.550;2022-07-23T02:59:55;6.13;;;3.47;;
20251;SDS011;10284;58.364;15.550;2022-07-23T03:02:20;7.28;;;2.85;;
20251;SDS011;10284;58.364;15.550;2022-07-23T03:04:46;6.75;;;2.90;;
20251;SDS011;10284;58.364;15.550;2022-07-23T03:07:11;7.85;;;2.75;;
20251;SDS011;10284;58.364;15.550;2022-07-23T03:09:37;6.40;;;2.53;;
20251;SDS011;10284;58.364;15.550;2022-07-23T03:12:02;8.13;;;3.13;;
20251;SDS011;10284;58.364;15.550;2022-07-23T03:14:28;9.55;;;2.88;;
20251;SDS011;10284;58.364;15.550;2022-07-23T03:16:53;6.88;;;3.25;;
20251;SDS011;10284;58.364;15.550;2022-07-23T03:19:19;6.45;;;2.58;;
20251;SDS011;10284;58.364;15.550;2022-07-23T03:21:45;6.55;;;2.75;;
20251;SDS011;10284;58.364;15.550;2022-07-23T03:24:10;9.63;;;2.78;;
20251;SDS011;10284;58.364;15.550;2022-07-23T03:26:36;10.93;;;2.58;;
20251;SDS011;10284;58.364;15.550;2022-07-23T03:29:01;6.85;;;2.50;;
20251;SDS011;10284;58.364;15.550;2022-07-23T03:31:28;4.10;;;2.08;;
20251;SDS011;10284;58.364;15.550;2022-07-23T03:33:55;5.85;;;2.80;;
20251;SDS011;10284;58.364;15.550;2022-07-23T03:36:21;5.80;;;2.75;;
20251;SDS011;10284;58.364;15.550;2022-07-23T03:38:46;3.50;;;2.45;;
20251;SDS011;10284;58.364;15.550;2022-07-23T03:41:12;3.58;;;2.30;;
20251;SDS011;10284;58.364;15.550;2022-07-23T03:43:37;5.53;;;2.33;;
20251;SDS011;10284;58.364;15.550;2022-07-23T03:46:02;3.42;;;2.00;;
20251;SDS011;10284;58.364;15.550;2022-07-23T03:48:28;3.47;;;2.10;;
20251;SDS011;10284;58.364;15.550;2022-07-23T03:50:53;4.00;;;1.92;;
20251;SDS011;10284;58.364;15.550;2022-07-23T03:53:19;5.45;;;2.20;;
20251;SDS011;10284;58.364;15.550;2022-07-23T03:55:44;5.82;;;1.70;;
20251;SDS011;10284;58.364;15.550;2022-07-23T03:58:10;4.72;;;2.05;;
20251;SDS011;10284;58.364;15.550;2022-07-23T04:00:35;3.10;;;2.05;;
20251;SDS011;10284;58.364;15.550;2022-07-23T04:03:00;2.58;;;1.92;;
20251;SDS011;10284;58.364;15.550;2022-07-23T04:05:26;2.25;;;1.90;;
20251;SDS011;10284;58.364;15.550;2022-07-23T04:07:51;3.25;;;1.90;;
20251;SDS011;10284;58.364;15.550;2022-07-23T04:10:17;2.88;;;1.80;;
20251;SDS011;10284;58.364;15.550;2022-07-23T04:12:42;3.38;;;1.70;;
20251;SDS011;10284;58.364;15.550;2022-07-23T04:15:08;7.63;;;1.80;;
20251;SDS011;10284;58.364;15.550;2022-07-23T04:17:34;2.95;;;1.42;;
20251;SDS011;10284;58.364;15.550;2022-07-23T04:19:59;5.75;;;1.58;;
20251;SDS011;10284;58.364;15.550;2022-07-23T04:22:24;3.88;;;1.77;;
20251;SDS011;10284;58.364;15.550;2022-07-23T04:24:50;3.95;;;1.73;;
20251;SDS011;10284;58.364;15.550;2022-07-23T04:27:15;2.72;;;1.90;;
20251;SDS011;10284;58.364;15.550;2022-07-23T04:29:41;4.75;;;1.88;;
20251;SDS011;10284;58.364;15.550;2022-07-23T04:32:06;5.18;;;2.00;;
20251;SDS011;10284;58.364;15.550;2022-07-23T04:34:32;4.43;;;1.95;;
20251;SDS011;10284;58.364;15.550;2022-07-23T04:36:57;5.00;;;1.63;;
20251;SDS011;10284;58.364;15.550;2022-07-23T04:39:23;2.58;;;1.85;;
20251;SDS011;10284;58.364;15.550;2022-07-23T04:41:48;5.63;;;1.80;;
20251;SDS011;10284;58.364;15.550;2022-07-23T04:44:14;8.57;;;1.90;;
20251;SDS011;10284;58.364;15.550;2022-07-23T04:46:39;4.20;;;1.65;;
20251;SDS011;10284;58.364;15.550;2022-07-23T04:49:05;5.68;;;1.58;;
20251;SDS011;10284;58.364;15.550;2022-07-23T04:51:31;2.85;;;1.77;;
20251;SDS011;10284;58.364;15.550;2022-07-23T04:53:56;2.17;;;1.73;;
20251;SDS011;10284;58.364;15.550;2022-07-23T04:56:21;3.47;;;1.60;;
20251;SDS011;10284;58.364;15.550;2022-07-23T04:58:47;2.65;;;1.30;;
20251;SDS011;10284;58.364;15.550;2022-07-23T05:01:12;4.97;;;1.40;;
20251;SDS011;10284;58.364;15.550;2022-07-23T05:03:38;3.75;;;1.55;;
20251;SDS011;10284;58.364;15.550;2022-07-23T05:06:03;2.22;;;1.40;;
20251;SDS011;10284;58.364;15.550;2022-07-23T05:08:29;2.55;;;1.40;;
20251;SDS011;10284;58.364;15.550;2022-07-23T05:10:54;2.03;;;1.30;;
20251;SDS011;10284;58.364;15.550;2022-07-23T05:13:20;3.80;;;1.50;;
20251;SDS011;10284;58.364;15.550;2022-07-23T05:15:45;4.50;;;1.70;;
20251;SDS011;10284;58.364;15.550;2022-07-23T05:18:11;1.98;;;1.50;;
20251;SDS011;10284;58.364;15.550;2022-07-23T05:20:37;1.88;;;1.17;;
20251;SDS011;10284;58.364;15.550;2022-07-23T05:23:02;2.67;;;1.60;;
20251;SDS011;10284;58.364;15.550;2022-07-23T05:25:28;4.15;;;1.70;;
20251;SDS011;10284;58.364;15.550;2022-07-23T05:27:53;4.97;;;1.48;;
20251;SDS011;10284;58.364;15.550;2022-07-23T05:30:19;1.83;;;1.27;;
20251;SDS011;10284;58.364;15.550;2022-07-23T05:32:44;1.83;;;1.63;;
20251;SDS011;10284;58.364;15.550;2022-07-23T05:35:10;1.75;;;1.27;;
20251;SDS011;10284;58.364;15.550;2022-07-23T05:37:36;2.17;;;1.45;;
20251;SDS011;10284;58.364;15.550;2022-07-23T05:40:05;5.05;;;1.70;;
20251;SDS011;10284;58.364;15.550;2022-07-23T05:42:35;3.95;;;1.80;;
20251;SDS011;10284;58.364;15.550;2022-07-23T05:45:01;2.53;;;1.73;;
20251;SDS011;10284;58.364;15.550;2022-07-23T05:47:27;2.10;;;1.70;;
20251;SDS011;10284;58.364;15.550;2022-07-23T05:49:53;3.85;;;1.88;;
20251;SDS011;10284;58.364;15.550;2022-07-23T05:52:19;2.95;;;1.80;;
20251;SDS011;10284;58.364;15.550;2022-07-23T05:54:44;2.25;;;1.50;;
20251;SDS011;10284;58.364;15.550;2022-07-23T05:57:10;2.08;;;1.55;;
20251;SDS011;10284;58.364;15.550;2022-07-23T05:59:35;3.53;;;1.50;;
20251;SDS011;10284;58.364;15.550;2022-07-23T06:02:00;1.98;;;1.60;;
20251;SDS011;10284;58.364;15.550;2022-07-23T06:04:26;1.83;;;1.60;;
20251;SDS011;10284;58.364;15.550;2022-07-23T06:06:51;4.53;;;2.05;;
20251;SDS011;10284;58.364;15.550;2022-07-23T06:09:17;2.13;;;1.80;;
20251;SDS011;10284;58.364;15.550;2022-07-23T06:11:43;2.15;;;1.90;;
20251;SDS011;10284;58.364;15.550;2022-07-23T06:14:08;1.75;;;1.65;;
20251;SDS011;10284;58.364;15.550;2022-07-23T06:16:34;3.35;;;2.05;;
20251;SDS011;10284;58.364;15.550;2022-07-23T06:18:59;2.70;;;2.00;;
20251;SDS011;10284;58.364;15.550;2022-07-23T06:21:25;3.05;;;2.00;;
20251;SDS011;10284;58.364;15.550;2022-07-23T06:23:50;2.90;;;1.92;;
20251;SDS011;10284;58.364;15.550;2022-07-23T06:26:16;2.45;;;2.08;;
20251;SDS011;10284;58.364;15.550;2022-07-23T06:28:41;2.15;;;1.95;;
20251;SDS011;10284;58.364;15.550;2022-07-23T06:31:07;2.85;;;2.50;;
20251;SDS011;10284;58.364;15.550;2022-07-23T06:33:33;2.55;;;2.35;;
20251;SDS011;10284;58.364;15.550;2022-07-23T06:35:58;4.80;;;2.25;;
20251;SDS011;10284;58.364;15.550;2022-07-23T06:38:24;2.10;;;1.90;;
20251;SDS011;10284;58.364;15.550;2022-07-23T06:40:49;3.15;;;2.30;;
20251;SDS011;10284;58.364;15.550;2022-07-23T06:43:15;6.10;;;1.92;;
20251;SDS011;10284;58.364;15.550;2022-07-23T06:45:40;4.40;;;2.30;;
20251;SDS011;10284;58.364;15.550;2022-07-23T06:48:05;2.63;;;2.10;;
20251;SDS011;10284;58.364;15.550;2022-07-23T06:50:31;2.15;;;1.90;;
20251;SDS011;10284;58.364;15.550;2022-07-23T06:52:57;4.88;;;2.35;;
20251;SDS011;10284;58.364;15.550;2022-07-23T06:55:22;3.15;;;1.80;;
20251;SDS011;10284;58.364;15.550;2022-07-23T06:57:47;4.38;;;1.95;;
20251;SDS011;10284;58.364;15.550;2022-07-23T07:00:13;2.17;;;1.90;;
20251;SDS011;10284;58.364;15.550;2022-07-23T07:02:38;2.50;;;1.70;;
20251;SDS011;10284;58.364;15.550;2022-07-23T07:05:04;3.00;;;2.00;;
20251;SDS011;10284;58.364;15.550;2022-07-23T07:07:30;2.63;;;1.70;;
20251;SDS011;10284;58.364;15.550;2022-07-23T07:09:55;3.42;;;1.63;;
20251;SDS011;10284;58.364;15.550;2022-07-23T07:12:21;4.88;;;1.90;;
20251;SDS011;10284;58.364;15.550;2022-07-23T07:14:46;3.15;;;2.03;;
20251;SDS011;10284;58.364;15.550;2022-07-23T07:17:11;2.35;;;1.45;;
20251;SDS011;10284;58.364;15.550;2022-07-23T07:19:37;3.28;;;1.83;;
20251;SDS011;10284;58.364;15.550;2022-07-23T07:22:02;2.53;;;1.63;;
20251;SDS011;10284;58.364;15.550;2022-07-23T07:24:28;1.52;;;1.42;;
20251;SDS011;10284;58.364;15.550;2022-07-23T07:26:53;1.70;;;1.40;;
20251;SDS011;10284;58.364;15.550;2022-07-23T07:29:19;2.60;;;1.70;;
20251;SDS011;10284;58.364;15.550;2022-07-23T07:31:44;2.55;;;1.52;;
20251;SDS011;10284;58.364;15.550;2022-07-23T07:34:10;2.75;;;1.40;;
20251;SDS011;10284;58.364;15.550;2022-07-23T07:36:35;3.53;;;1.67;;
20251;SDS011;10284;58.364;15.550;2022-07-23T07:39:02;1.70;;;1.60;;
20251;SDS011;10284;58.364;15.550;2022-07-23T07:41:29;1.95;;;1.60;;
20251;SDS011;10284;58.364;15.550;2022-07-23T07:43:55;2.13;;;1.50;;
20251;SDS011;10284;58.364;15.550;2022-07-23T07:46:20;1.52;;;1.38;;
20251;SDS011;10284;58.364;15.550;2022-07-23T07:48:48;3.40;;;1.80;;
20251;SDS011;10284;58.364;15.550;2022-07-23T07:51:14;1.48;;;1.20;;
20251;SDS011;10284;58.364;15.550;2022-07-23T07:53:40;2.58;;;1.60;;
20251;SDS011;10284;58.364;15.550;2022-07-23T07:56:05;1.35;;;1.15;;
20251;SDS011;10284;58.364;15.550;2022-07-23T07:58:31;1.80;;;1.27;;
20251;SDS011;10284;58.364;15.550;2022-07-23T08:00:56;1.85;;;1.35;;
20251;SDS011;10284;58.364;15.550;2022-07-23T08:03:22;2.35;;;1.30;;
20251;SDS011;10284;58.364;15.550;2022-07-23T08:05:47;2.67;;;1.30;;
20251;SDS011;10284;58.364;15.550;2022-07-23T08:08:12;2.45;;;1.30;;
20251;SDS011;10284;58.364;15.550;2022-07-23T08:10:39;1.55;;;1.35;;
20251;SDS011;10284;58.364;15.550;2022-07-23T08:13:05;1.50;;;1.40;;
20251;SDS011;10284;58.364;15.550;2022-07-23T08:15:31;1.90;;;1.65;;
20251;SDS011;10284;58.364;15.550;2022-07-23T08:17:57;1.90;;;1.50;;
20251;SDS011;10284;58.364;15.550;2022-07-23T08:20:23;1.55;;;1.45;;
20251;SDS011;10284;58.364;15.550;2022-07-23T08:22:50;2.13;;;1.30;;
20251;SDS011;10284;58.364;15.550;2022-07-23T08:25:20;2.08;;;1.30;;
20251;SDS011;10284;58.364;15.550;2022-07-23T08:27:49;2.00;;;1.45;;
20251;SDS011;10284;58.364;15.550;2022-07-23T08:30:15;2.88;;;1.45;;
20251;SDS011;10284;58.364;15.550;2022-07-23T08:35:31;1.83;;;1.60;;
20251;SDS011;10284;58.364;15.550;2022-07-23T08:37:58;2.53;;;1.85;;
20251;SDS011;10284;58.364;15.550;2022-07-23T08:40:29;3.03;;;1.52;;
20251;SDS011;10284;58.364;15.550;2022-07-23T08:42:56;1.90;;;1.80;;
20251;SDS011;10284;58.364;15.550;2022-07-23T08:45:22;2.88;;;1.63;;
20251;SDS011;10284;58.364;15.550;2022-07-23T08:47:53;2.30;;;1.58;;
20251;SDS011;10284;58.364;15.550;2022-07-23T08:50:20;2.75;;;1.42;;
20251;SDS011;10284;58.364;15.550;2022-07-23T08:52:48;1.67;;;1.58;;
20251;SDS011;10284;58.364;15.550;2022-07-23T08:55:16;1.33;;;1.23;;
20251;SDS011;10284;58.364;15.550;2022-07-23T08:57:42;3.03;;;1.67;;
20251;SDS011;10284;58.364;15.550;2022-07-23T09:00:08;2.50;;;1.70;;
20251;SDS011;10284;58.364;15.550;2022-07-23T09:02:40;1.73;;;1.60;;
20251;SDS011;10284;58.364;15.550;2022-07-23T09:05:08;1.88;;;1.45;;
20251;SDS011;10284;58.364;15.550;2022-07-23T09:07:35;1.98;;;1.65;;
20251;SDS011;10284;58.364;15.550;2022-07-23T09:10:19;1.45;;;1.35;;
20251;SDS011;10284;58.364;15.550;2022-07-23T09:12:44;2.17;;;1.73;;
20251;SDS011;10284;58.364;15.550;2022-07-23T09:15:10;1.92;;;1.65;;
20251;SDS011;10284;58.364;15.550;2022-07-23T09:17:40;1.90;;;1.55;;
20251;SDS011;10284;58.364;15.550;2022-07-23T09:20:08;2.42;;;1.67;;
20251;SDS011;10284;58.364;15.550;2022-07-23T09:22:38;3.83;;;1.60;;
20251;SDS011;10284;58.364;15.550;2022-07-23T09:25:12;1.75;;;1.65;;
20251;SDS011;10284;58.364;15.550;2022-07-23T09:30:25;2.03;;;1.90;;
20251;SDS011;10284;58.364;15.550;2022-07-23T09:35:52;3.53;;;1.92;;
20251;SDS011;10284;58.364;15.550;2022-07-23T09:38:19;2.15;;;1.92;;
20251;SDS011;10284;58.364;15.550;2022-07-23T09:40:45;2.20;;;1.95;;
20251;SDS011;10284;58.364;15.550;2022-07-23T09:43:12;3.70;;;1.98;;
20251;SDS011;10284;58.364;15.550;2022-07-23T09:45:38;2.35;;;1.77;;
20251;SDS011;10284;58.364;15.550;2022-07-23T09:48:17;3.03;;;2.00;;
20251;SDS011;10284;58.364;15.550;2022-07-23T09:50:43;2.80;;;1.70;;
20251;SDS011;10284;58.364;15.550;2022-07-23T09:53:09;3.78;;;1.67;;
20251;SDS011;10284;58.364;15.550;2022-07-23T09:55:36;1.73;;;1.60;;
20251;SDS011;10284;58.364;15.550;2022-07-23T09:58:07;2.15;;;1.50;;
20251;SDS011;10284;58.364;15.550;2022-07-23T10:00:39;1.92;;;1.83;;
20251;SDS011;10284;58.364;15.550;2022-07-23T10:03:05;2.40;;;1.67;;
20251;SDS011;10284;58.364;15.550;2022-07-23T10:05:31;2.08;;;1.90;;
20251;SDS011;10284;58.364;15.550;2022-07-23T10:07:56;2.30;;;2.10;;
20251;SDS011;10284;58.364;15.550;2022-07-23T10:10:23;2.15;;;1.95;;
20251;SDS011;10284;58.364;15.550;2022-07-23T10:12:49;2.40;;;1.92;;
20251;SDS011;10284;58.364;15.550;2022-07-23T10:15:50;4.13;;;1.70;;
20251;SDS011;10284;58.364;15.550;2022-07-23T10:18:16;2.60;;;1.55;;
20251;SDS011;10284;58.364;15.550;2022-07-23T10:20:42;1.60;;;1.50;;
20251;SDS011;10284;58.364;15.550;2022-07-23T10:23:16;1.77;;;1.67;;
20251;SDS011;10284;58.364;15.550;2022-07-23T10:34:02;2.45;;;1.30;;
20251;SDS011;10284;58.364;15.550;2022-07-23T10:36:47;1.67;;;1.20;;
20251;SDS011;10284;58.364;15.550;2022-07-23T10:40:09;2.38;;;1.10;;
20251;SDS011;10284;58.364;15.550;2022-07-23T10:42:40;1.50;;;1.40;;
20251;SDS011;10284;58.364;15.550;2022-07-23T10:50:42;2.00;;;1.90;;
20251;SDS011;10284;58.364;15.550;2022-07-23T10:53:09;2.20;;;2.00;;
20251;SDS011;10284;58.364;15.550;2022-07-23T10:55:48;2.33;;;1.95;;
20251;SDS011;10284;58.364;15.550;2022-07-23T10:58:20;2.28;;;1.75;;
20251;SDS011;10284;58.364;15.550;2022-07-23T11:00:47;2.03;;;1.85;;
20251;SDS011;10284;58.364;15.550;2022-07-23T11:03:30;2.25;;;2.05;;
20251;SDS011;10284;58.364;15.550;2022-07-23T11:05:58;2.75;;;2.00;;
20251;SDS011;10284;58.364;15.550;2022-07-23T11:08:24;3.13;;;1.70;;
20251;SDS011;10284;58.364;15.550;2022-07-23T11:10:51;2.35;;;2.13;;
20251;SDS011;10284;58.364;15.550;2022-07-23T11:37:04;2.70;;;1.77;;
20251;SDS011;10284;58.364;15.550;2022-07-23T11:39:31;2.40;;;1.73;;
20251;SDS011;10284;58.364;15.550;2022-07-23T11:41:57;2.05;;;1.85;;
20251;SDS011;10284;58.364;15.550;2022-07-23T11:44:26;2.35;;;1.75;;
20251;SDS011;10284;58.364;15.550;2022-07-23T11:47:03;4.05;;;1.77;;
20251;SDS011;10284;58.364;15.550;2022-07-23T11:49:30;3.75;;;2.00;;
20251;SDS011;10284;58.364;15.550;2022-07-23T11:54:52;4.47;;;1.92;;
20251;SDS011;10284;58.364;15.550;2022-07-23T11:57:26;2.38;;;1.90;;
20251;SDS011;10284;58.364;15.550;2022-07-23T12:00:07;2.25;;;1.98;;
20251;SDS011;10284;58.364;15.550;2022-07-23T12:02:34;1.70;;;1.60;;
20251;SDS011;10284;58.364;15.550;2022-07-23T12:05:00;4.72;;;1.98;;
20251;SDS011;10284;58.364;15.550;2022-07-23T12:07:27;3.33;;;2.60;;
20251;SDS011;10284;58.364;15.550;2022-07-23T12:09:52;4.03;;;2.10;;
20251;SDS011;10284;58.364;15.550;2022-07-23T12:12:19;2.70;;;2.50;;
20251;SDS011;10284;58.364;15.550;2022-07-23T12:15:03;2.83;;;2.10;;
20251;SDS011;10284;58.364;15.550;2022-07-23T12:17:30;2.95;;;2.25;;
20251;SDS011;10284;58.364;15.550;2022-07-23T12:19:58;3.13;;;2.30;;
20251;SDS011;10284;58.364;15.550;2022-07-23T12:22:24;2.97;;;2.00;;
20251;SDS011;10284;58.364;15.550;2022-07-23T12:24:58;2.42;;;1.75;;
20251;SDS011;10284;58.364;15.550;2022-07-23T12:27:25;2.20;;;2.00;;
20251;SDS011;10284;58.364;15.550;2022-07-23T12:29:51;2.78;;;2.30;;
20251;SDS011;10284;58.364;15.550;2022-07-23T12:32:23;3.85;;;2.58;;
20251;SDS011;10284;58.364;15.550;2022-07-23T12:35:10;2.50;;;2.30;;
20251;SDS011;10284;58.364;15.550;2022-07-23T12:37:40;2.28;;;2.10;;
20251;SDS011;10284;58.364;15.550;2022-07-23T12:42:54;2.63;;;2.30;;
20251;SDS011;10284;58.364;15.550;2022-07-23T12:45:20;2.50;;;2.30;;
20251;SDS011;10284;58.364;15.550;2022-07-23T12:53:14;3.13;;;2.83;;
20251;SDS011;10284;58.364;15.550;2022-07-23T12:55:43;3.33;;;2.88;;
20251;SDS011;10284;58.364;15.550;2022-07-23T12:58:11;3.38;;;2.80;;
20251;SDS011;10284;58.364;15.550;2022-07-23T13:03:24;3.20;;;2.90;;
20251;SDS011;10284;58.364;15.550;2022-07-23T13:05:53;4.00;;;2.80;;
20251;SDS011;10284;58.364;15.550;2022-07-23T13:08:19;3.65;;;2.70;;
20251;SDS011;10284;58.364;15.550;2022-07-23T13:10:44;4.63;;;2.92;;
20251;SDS011;10284;58.364;15.550;2022-07-23T13:13:13;3.42;;;3.13;;
20251;SDS011;10284;58.364;15.550;2022-07-23T13:15:39;4.03;;;3.05;;
20251;SDS011;10284;58.364;15.550;2022-07-23T13:18:04;3.13;;;2.72;;
20251;SDS011;10284;58.364;15.550;2022-07-23T13:20:30;3.55;;;2.45;;
20251;SDS011;10284;58.364;15.550;2022-07-23T13:22:57;4.53;;;2.70;;
20251;SDS011;10284;58.364;15.550;2022-07-23T13:25:23;4.13;;;2.70;;
20251;SDS011;10284;58.364;15.550;2022-07-23T13:27:48;3.10;;;2.80;;
20251;SDS011;10284;58.364;15.550;2022-07-23T13:30:14;3.10;;;2.90;;
20251;SDS011;10284;58.364;15.550;2022-07-23T13:32:40;3.75;;;2.63;;
20251;SDS011;10284;58.364;15.550;2022-07-23T13:35:05;5.50;;;3.13;;
20251;SDS011;10284;58.364;15.550;2022-07-23T13:37:31;5.32;;;2.70;;
20251;SDS011;10284;58.364;15.550;2022-07-23T13:39:56;3.30;;;3.00;;
20251;SDS011;10284;58.364;15.550;2022-07-23T13:42:22;3.03;;;2.72;;
20251;SDS011;10284;58.364;15.550;2022-07-23T13:44:47;2.75;;;2.42;;
20251;SDS011;10284;58.364;15.550;2022-07-23T13:47:13;4.13;;;2.65;;
20251;SDS011;10284;58.364;15.550;2022-07-23T13:49:38;2.78;;;2.55;;
20251;SDS011;10284;58.364;15.550;2022-07-23T13:52:04;2.80;;;2.60;;
20251;SDS011;10284;58.364;15.550;2022-07-23T13:54:29;3.97;;;2.70;;
20251;SDS011;10284;58.364;15.550;2022-07-23T13:56:55;3.88;;;2.22;;
20251;SDS011;10284;58.364;15.550;2022-07-23T13:59:20;2.70;;;2.50;;
20251;SDS011;10284;58.364;15.550;2022-07-23T14:01:46;2.40;;;2.20;;
20251;SDS011;10284;58.364;15.550;2022-07-23T14:04:12;3.05;;;1.98;;
20251;SDS011;10284;58.364;15.550;2022-07-23T14:06:37;3.10;;;2.10;;
20251;SDS011;10284;58.364;15.550;2022-07-23T14:09:02;4.78;;;2.03;;
20251;SDS011;10284;58.364;15.550;2022-07-23T14:11:28;2.22;;;2.03;;
20251;SDS011;10284;58.364;15.550;2022-07-23T14:13:55;2.40;;;1.80;;
20251;SDS011;10284;58.364;15.550;2022-07-23T14:16:21;1.67;;;1.58;;
20251;SDS011;10284;58.364;15.550;2022-07-23T14:18:46;2.30;;;1.92;;
20251;SDS011;10284;58.364;15.550;2022-07-23T14:21:12;3.53;;;1.77;;
20251;SDS011;10284;58.364;15.550;2022-07-23T14:23:38;2.13;;;1.90;;
20251;SDS011;10284;58.364;15.550;2022-07-23T14:26:03;2.45;;;1.70;;
20251;SDS011;10284;58.364;15.550;2022-07-23T14:28:29;1.88;;;1.50;;
20251;SDS011;10284;58.364;15.550;2022-07-23T14:30:54;2.25;;;1.92;;
20251;SDS011;10284;58.364;15.550;2022-07-23T14:33:19;2.17;;;1.60;;
20251;SDS011;10284;58.364;15.550;2022-07-23T14:35:46;5.32;;;1.80;;
20251;SDS011;10284;58.364;15.550;2022-07-23T14:38:11;2.05;;;1.70;;
20251;SDS011;10284;58.364;15.550;2022-07-23T14:40:37;2.58;;;1.75;;
20251;SDS011;10284;58.364;15.550;2022-07-23T14:43:02;3.38;;;1.75;;
20251;SDS011;10284;58.364;15.550;2022-07-23T14:45:27;3.47;;;1.88;;
20251;SDS011;10284;58.364;15.550;2022-07-23T14:47:55;3.17;;;1.88;;
20251;SDS011;10284;58.364;15.550;2022-07-23T14:50:20;3.88;;;2.10;;
20251;SDS011;10284;58.364;15.550;2022-07-23T14:52:46;2.13;;;1.92;;
20251;SDS011;10284;58.364;15.550;2022-07-23T14:55:11;2.10;;;2.00;;
20251;SDS011;10284;58.364;15.550;2022-07-23T14:57:37;1.90;;;1.77;;
20251;SDS011;10284;58.364;15.550;2022-07-23T15:00:06;3.42;;;1.83;;
20251;SDS011;10284;58.364;15.550;2022-07-23T15:02:32;4.38;;;1.65;;
20251;SDS011;10284;58.364;15.550;2022-07-23T15:04:57;2.00;;;1.90;;
20251;SDS011;10284;58.364;15.550;2022-07-23T15:07:26;6.68;;;1.95;;
20251;SDS011;10284;58.364;15.550;2022-07-23T15:09:52;2.60;;;2.03;;
20251;SDS011;10284;58.364;15.550;2022-07-23T15:12:17;1.95;;;1.80;;
20251;SDS011;10284;58.364;15.550;2022-07-23T15:14:42;5.05;;;2.30;;
20251;SDS011;10284;58.364;15.550;2022-07-23T15:17:08;7.50;;;2.38;;
20251;SDS011;10284;58.364;15.550;2022-07-23T15:19:34;2.58;;;2.38;;
20251;SDS011;10284;58.364;15.550;2022-07-23T15:21:59;2.63;;;2.20;;
20251;SDS011;10284;58.364;15.550;2022-07-23T15:24:25;3.15;;;2.50;;
20251;SDS011;10284;58.364;15.550;2022-07-23T15:26:50;3.75;;;3.08;;